sensor_id;sensor_type;location;lat;lon;timestamp;P1;durP1;ratioP1;P2;durP2;ratioP2
49834;SDS011;35729;52.090;13.162;2023-04-28T00:01:49;6.50;;;3.08;;
49834;SDS011;35729;52.090;13.162;2023-04-28T00:04:17;6.72;;;2.97;;
49834;SDS011;35729;52.090;13.162;2023-04-28T00:06:46;6.03;;;2.80;;
49834;SDS011;35729;52.090;13.162;2023-04-28T00:09:14;4.57;;;2.97;;
49834;SDS011;35729;52.090;13.162;2023-04-28T00:11:45;3.17;;;2.60;;
49834;SDS011;35729;52.090;13.162;2023-04-28T00:14:14;7.05;;;3.15;;
49834;SDS011;35729;52.090;13.162;2023-04-28T00:16:42;5.57;;;2.97;;
49834;SDS011;35729;52.090;13.162;2023-04-28T00:19:11;4.72;;;2.40;;
49834;SDS011;35729;52.090;13.162;2023-04-28T00:21:39;4.80;;;3.15;;
49834;SDS011;35729;52.090;13.162;2023-04-28T00:24:08;3.92;;;2.63;;
49834;SDS011;35729;52.090;13.162;2023-04-28T00:26:36;4.95;;;3.50;;
49834;SDS011;35729;52.090;13.162;2023-04-28T00:29:07;5.93;;;2.97;;
49834;SDS011;35729;52.090;13.162;2023-04-28T00:31:36;4.07;;;2.85;;
49834;SDS011;35729;52.090;13.162;2023-04-28T00:34:04;4.03;;;3.03;;
49834;SDS011;35729;52.090;13.162;2023-04-28T00:36:33;6.60;;;3.45;;
49834;SDS011;35729;52.090;13.162;2023-04-28T00:39:01;3.63;;;2.90;;
49834;SDS011;35729;52.090;13.162;2023-04-28T00:41:29;5.07;;;3.22;;
49834;SDS011;35729;52.090;13.162;2023-04-28T00:43:58;6.93;;;3.38;;
49834;SDS011;35729;52.090;13.162;2023-04-28T00:46:29;4.90;;;2.80;;
49834;SDS011;35729;52.090;13.162;2023-04-28T00:48:58;4.78;;;2.95;;
49834;SDS011;35729;52.090;13.162;2023-04-28T00:51:27;3.47;;;2.70;;
49834;SDS011;35729;52.090;13.162;2023-04-28T00:53:57;3.38;;;2.58;;
49834;SDS011;35729;52.090;13.162;2023-04-28T00:56:27;4.25;;;3.08;;
49834;SDS011;35729;52.090;13.162;2023-04-28T00:58:56;5.93;;;3.55;;
49834;SDS011;35729;52.090;13.162;2023-04-28T01:01:25;4.30;;;3.05;;
49834;SDS011;35729;52.090;13.162;2023-04-28T01:03:56;5.15;;;2.47;;
49834;SDS011;35729;52.090;13.162;2023-04-28T01:06:24;6.63;;;2.83;;
49834;SDS011;35729;52.090;13.162;2023-04-28T01:08:54;5.70;;;2.67;;
49834;SDS011;35729;52.090;13.162;2023-04-28T01:11:23;6.10;;;3.38;;
49834;SDS011;35729;52.090;13.162;2023-04-28T01:13:51;5.40;;;3.13;;
49834;SDS011;35729;52.090;13.162;2023-04-28T01:16:21;6.18;;;3.85;;
49834;SDS011;35729;52.090;13.162;2023-04-28T01:18:50;4.15;;;3.50;;
49834;SDS011;35729;52.090;13.162;2023-04-28T01:21:27;8.68;;;3.80;;
49834;SDS011;35729;52.090;13.162;2023-04-28T01:23:59;5.03;;;3.78;;
49834;SDS011;35729;52.090;13.162;2023-04-28T01:26:28;6.20;;;3.25;;
49834;SDS011;35729;52.090;13.162;2023-04-28T01:28:56;4.93;;;2.67;;
49834;SDS011;35729;52.090;13.162;2023-04-28T01:31:25;7.20;;;3.45;;
49834;SDS011;35729;52.090;13.162;2023-04-28T01:33:55;6.18;;;3.90;;
49834;SDS011;35729;52.090;13.162;2023-04-28T01:36:23;7.68;;;3.33;;
49834;SDS011;35729;52.090;13.162;2023-04-28T01:38:53;4.20;;;3.33;;
49834;SDS011;35729;52.090;13.162;2023-04-28T01:41:25;4.75;;;3.60;;
49834;SDS011;35729;52.090;13.162;2023-04-28T01:43:53;4.78;;;2.97;;
49834;SDS011;35729;52.090;13.162;2023-04-28T01:46:21;6.03;;;2.88;;
49834;SDS011;35729;52.090;13.162;2023-04-28T01:48:50;5.25;;;3.70;;
49834;SDS011;35729;52.090;13.162;2023-04-28T01:51:18;9.35;;;3.55;;
49834;SDS011;35729;52.090;13.162;2023-04-28T01:53:47;7.22;;;3.55;;
49834;SDS011;35729;52.090;13.162;2023-04-28T01:56:15;5.82;;;3.38;;
49834;SDS011;35729;52.090;13.162;2023-04-28T01:58:46;5.72;;;3.63;;
49834;SDS011;35729;52.090;13.162;2023-04-28T02:01:15;8.95;;;3.45;;
49834;SDS011;35729;52.090;13.162;2023-04-28T02:03:44;4.55;;;3.13;;
49834;SDS011;35729;52.090;13.162;2023-04-28T02:06:13;4.82;;;3.38;;
49834;SDS011;35729;52.090;13.162;2023-04-28T02:08:41;5.78;;;3.72;;
49834;SDS011;35729;52.090;13.162;2023-04-28T02:11:10;6.85;;;3.15;;
49834;SDS011;35729;52.090;13.162;2023-04-28T02:13:38;8.25;;;3.70;;
49834;SDS011;35729;52.090;13.162;2023-04-28T02:16:09;4.53;;;3.10;;
49834;SDS011;35729;52.090;13.162;2023-04-28T02:18:37;5.75;;;3.88;;
49834;SDS011;35729;52.090;13.162;2023-04-28T02:21:09;5.03;;;3.75;;
49834;SDS011;35729;52.090;13.162;2023-04-28T02:23:38;6.85;;;3.80;;
49834;SDS011;35729;52.090;13.162;2023-04-28T02:26:07;6.90;;;3.45;;
49834;SDS011;35729;52.090;13.162;2023-04-28T02:28:35;8.85;;;3.75;;
49834;SDS011;35729;52.090;13.162;2023-04-28T02:31:05;6.28;;;3.53;;
49834;SDS011;35729;52.090;13.162;2023-04-28T02:33:37;6.78;;;3.85;;
49834;SDS011;35729;52.090;13.162;2023-04-28T02:36:06;4.53;;;3.55;;
49834;SDS011;35729;52.090;13.162;2023-04-28T02:38:35;9.85;;;4.22;;
49834;SDS011;35729;52.090;13.162;2023-04-28T02:41:05;5.07;;;3.63;;
49834;SDS011;35729;52.090;13.162;2023-04-28T02:43:34;7.20;;;4.38;;
49834;SDS011;35729;52.090;13.162;2023-04-28T02:46:03;6.70;;;3.92;;
49834;SDS011;35729;52.090;13.162;2023-04-28T02:48:32;5.50;;;4.03;;
49834;SDS011;35729;52.090;13.162;2023-04-28T02:51:04;6.47;;;4.00;;
49834;SDS011;35729;52.090;13.162;2023-04-28T02:53:32;4.93;;;3.80;;
49834;SDS011;35729;52.090;13.162;2023-04-28T02:56:01;7.70;;;3.95;;
49834;SDS011;35729;52.090;13.162;2023-04-28T02:58:29;5.38;;;4.10;;
49834;SDS011;35729;52.090;13.162;2023-04-28T03:00:58;4.85;;;3.75;;
49834;SDS011;35729;52.090;13.162;2023-04-28T03:03:26;5.18;;;3.70;;
49834;SDS011;35729;52.090;13.162;2023-04-28T03:05:55;4.72;;;4.00;;
49834;SDS011;35729;52.090;13.162;2023-04-28T03:08:26;4.88;;;3.60;;
49834;SDS011;35729;52.090;13.162;2023-04-28T03:10:54;6.35;;;3.95;;
49834;SDS011;35729;52.090;13.162;2023-04-28T03:13:23;5.05;;;3.15;;
49834;SDS011;35729;52.090;13.162;2023-04-28T03:15:51;3.80;;;3.28;;
49834;SDS011;35729;52.090;13.162;2023-04-28T03:18:20;5.20;;;3.60;;
49834;SDS011;35729;52.090;13.162;2023-04-28T03:20:49;5.50;;;3.45;;
49834;SDS011;35729;52.090;13.162;2023-04-28T03:23:17;5.00;;;3.70;;
49834;SDS011;35729;52.090;13.162;2023-04-28T03:25:48;6.72;;;3.88;;
49834;SDS011;35729;52.090;13.162;2023-04-28T03:28:16;9.30;;;4.80;;
49834;SDS011;35729;52.090;13.162;2023-04-28T03:30:45;8.13;;;4.30;;
49834;SDS011;35729;52.090;13.162;2023-04-28T03:33:13;6.15;;;4.07;;
49834;SDS011;35729;52.090;13.162;2023-04-28T03:35:42;6.43;;;3.70;;
49834;SDS011;35729;52.090;13.162;2023-04-28T03:38:10;6.63;;;4.07;;
49834;SDS011;35729;52.090;13.162;2023-04-28T03:40:39;6.68;;;3.75;;
49834;SDS011;35729;52.090;13.162;2023-04-28T03:43:10;7.90;;;3.95;;
49834;SDS011;35729;52.090;13.162;2023-04-28T03:45:39;7.93;;;4.40;;
49834;SDS011;35729;52.090;13.162;2023-04-28T03:48:08;8.48;;;3.70;;
49834;SDS011;35729;52.090;13.162;2023-04-28T03:50:36;6.70;;;3.75;;
49834;SDS011;35729;52.090;13.162;2023-04-28T03:53:05;8.32;;;4.45;;
49834;SDS011;35729;52.090;13.162;2023-04-28T03:55:33;10.43;;;4.63;;
49834;SDS011;35729;52.090;13.162;2023-04-28T03:58:02;7.57;;;4.22;;
49834;SDS011;35729;52.090;13.162;2023-04-28T04:00:33;8.13;;;4.45;;
49834;SDS011;35729;52.090;13.162;2023-04-28T04:03:01;7.82;;;4.88;;
49834;SDS011;35729;52.090;13.162;2023-04-28T04:05:30;7.50;;;4.43;;
49834;SDS011;35729;52.090;13.162;2023-04-28T04:07:59;8.18;;;4.70;;
49834;SDS011;35729;52.090;13.162;2023-04-28T04:10:27;7.25;;;5.35;;
49834;SDS011;35729;52.090;13.162;2023-04-28T04:12:55;8.52;;;4.53;;
49834;SDS011;35729;52.090;13.162;2023-04-28T04:15:24;8.32;;;4.68;;
49834;SDS011;35729;52.090;13.162;2023-04-28T04:17:55;8.18;;;5.05;;
49834;SDS011;35729;52.090;13.162;2023-04-28T04:20:24;9.38;;;4.93;;
49834;SDS011;35729;52.090;13.162;2023-04-28T04:22:52;9.77;;;5.45;;
49834;SDS011;35729;52.090;13.162;2023-04-28T04:25:21;13.48;;;6.43;;
49834;SDS011;35729;52.090;13.162;2023-04-28T04:27:49;10.40;;;5.75;;
49834;SDS011;35729;52.090;13.162;2023-04-28T04:30:18;9.43;;;5.60;;
49834;SDS011;35729;52.090;13.162;2023-04-28T04:32:46;9.32;;;5.32;;
49834;SDS011;35729;52.090;13.162;2023-04-28T04:35:17;8.02;;;5.28;;
49834;SDS011;35729;52.090;13.162;2023-04-28T04:37:46;9.45;;;5.90;;
49834;SDS011;35729;52.090;13.162;2023-04-28T04:40:15;11.02;;;5.65;;
49834;SDS011;35729;52.090;13.162;2023-04-28T04:42:43;10.00;;;5.88;;
49834;SDS011;35729;52.090;13.162;2023-04-28T04:45:12;7.30;;;5.80;;
49834;SDS011;35729;52.090;13.162;2023-04-28T04:47:48;8.05;;;6.10;;
49834;SDS011;35729;52.090;13.162;2023-04-28T04:50:19;10.70;;;6.40;;
49834;SDS011;35729;52.090;13.162;2023-04-28T04:52:48;17.58;;;7.45;;
49834;SDS011;35729;52.090;13.162;2023-04-28T04:55:23;11.65;;;6.05;;
49834;SDS011;35729;52.090;13.162;2023-04-28T04:57:52;11.38;;;7.00;;
49834;SDS011;35729;52.090;13.162;2023-04-28T05:00:20;12.40;;;7.38;;
49834;SDS011;35729;52.090;13.162;2023-04-28T05:02:49;24.27;;;13.70;;
49834;SDS011;35729;52.090;13.162;2023-04-28T05:05:20;16.35;;;10.07;;
49834;SDS011;35729;52.090;13.162;2023-04-28T05:07:48;15.65;;;11.43;;
49834;SDS011;35729;52.090;13.162;2023-04-28T05:10:17;14.40;;;8.55;;
49834;SDS011;35729;52.090;13.162;2023-04-28T05:12:45;13.77;;;8.52;;
49834;SDS011;35729;52.090;13.162;2023-04-28T05:15:14;11.23;;;7.72;;
49834;SDS011;35729;52.090;13.162;2023-04-28T05:17:43;10.88;;;7.57;;
49834;SDS011;35729;52.090;13.162;2023-04-28T05:20:11;17.63;;;8.32;;
49834;SDS011;35729;52.090;13.162;2023-04-28T05:22:43;11.20;;;7.43;;
49834;SDS011;35729;52.090;13.162;2023-04-28T05:25:11;15.05;;;7.82;;
49834;SDS011;35729;52.090;13.162;2023-04-28T05:27:40;13.95;;;11.18;;
49834;SDS011;35729;52.090;13.162;2023-04-28T05:30:09;14.35;;;8.30;;
49834;SDS011;35729;52.090;13.162;2023-04-28T05:32:37;12.57;;;7.43;;
49834;SDS011;35729;52.090;13.162;2023-04-28T05:35:06;12.63;;;8.35;;
49834;SDS011;35729;52.090;13.162;2023-04-28T05:37:35;15.15;;;7.72;;
49834;SDS011;35729;52.090;13.162;2023-04-28T05:40:10;12.45;;;7.97;;
49834;SDS011;35729;52.090;13.162;2023-04-28T05:42:39;10.20;;;8.27;;
49834;SDS011;35729;52.090;13.162;2023-04-28T05:45:08;11.15;;;7.80;;
49834;SDS011;35729;52.090;13.162;2023-04-28T05:47:37;13.18;;;8.57;;
49834;SDS011;35729;52.090;13.162;2023-04-28T05:50:06;15.57;;;8.02;;
49834;SDS011;35729;52.090;13.162;2023-04-28T05:52:36;12.32;;;8.00;;
49834;SDS011;35729;52.090;13.162;2023-04-28T05:55:05;12.00;;;7.80;;
49834;SDS011;35729;52.090;13.162;2023-04-28T05:57:36;12.38;;;7.55;;
49834;SDS011;35729;52.090;13.162;2023-04-28T06:00:05;11.90;;;7.50;;
49834;SDS011;35729;52.090;13.162;2023-04-28T06:02:35;11.80;;;7.40;;
49834;SDS011;35729;52.090;13.162;2023-04-28T06:05:04;10.55;;;7.47;;
49834;SDS011;35729;52.090;13.162;2023-04-28T06:07:32;12.60;;;6.50;;
49834;SDS011;35729;52.090;13.162;2023-04-28T06:10:01;9.93;;;6.63;;
49834;SDS011;35729;52.090;13.162;2023-04-28T06:12:30;8.85;;;5.90;;
49834;SDS011;35729;52.090;13.162;2023-04-28T06:15:01;9.98;;;6.00;;
49834;SDS011;35729;52.090;13.162;2023-04-28T06:17:30;9.55;;;5.70;;
49834;SDS011;35729;52.090;13.162;2023-04-28T06:19:59;10.20;;;6.35;;
49834;SDS011;35729;52.090;13.162;2023-04-28T06:22:27;9.43;;;5.70;;
49834;SDS011;35729;52.090;13.162;2023-04-28T06:24:56;7.32;;;5.30;;
49834;SDS011;35729;52.090;13.162;2023-04-28T06:27:24;9.00;;;5.65;;
49834;SDS011;35729;52.090;13.162;2023-04-28T06:29:56;9.93;;;6.55;;
49834;SDS011;35729;52.090;13.162;2023-04-28T06:32:27;8.50;;;5.63;;
49834;SDS011;35729;52.090;13.162;2023-04-28T06:34:56;12.43;;;6.40;;
49834;SDS011;35729;52.090;13.162;2023-04-28T06:37:25;10.70;;;6.20;;
49834;SDS011;35729;52.090;13.162;2023-04-28T06:39:53;7.68;;;5.53;;
49834;SDS011;35729;52.090;13.162;2023-04-28T06:42:22;9.23;;;6.07;;
49834;SDS011;35729;52.090;13.162;2023-04-28T06:44:50;8.80;;;5.65;;
49834;SDS011;35729;52.090;13.162;2023-04-28T06:47:19;9.10;;;5.60;;
49834;SDS011;35729;52.090;13.162;2023-04-28T06:49:50;10.27;;;6.07;;
49834;SDS011;35729;52.090;13.162;2023-04-28T06:52:18;11.25;;;5.57;;
49834;SDS011;35729;52.090;13.162;2023-04-28T06:54:48;9.23;;;5.60;;
49834;SDS011;35729;52.090;13.162;2023-04-28T06:57:16;9.73;;;5.45;;
49834;SDS011;35729;52.090;13.162;2023-04-28T06:59:45;7.28;;;5.18;;
49834;SDS011;35729;52.090;13.162;2023-04-28T07:02:13;11.70;;;6.05;;
49834;SDS011;35729;52.090;13.162;2023-04-28T07:04:42;10.82;;;5.78;;
49834;SDS011;35729;52.090;13.162;2023-04-28T07:07:13;10.02;;;5.80;;
49834;SDS011;35729;52.090;13.162;2023-04-28T07:09:41;8.00;;;5.38;;
49834;SDS011;35729;52.090;13.162;2023-04-28T07:12:10;10.95;;;5.85;;
49834;SDS011;35729;52.090;13.162;2023-04-28T07:14:39;9.30;;;5.75;;
49834;SDS011;35729;52.090;13.162;2023-04-28T07:17:07;8.93;;;5.93;;
49834;SDS011;35729;52.090;13.162;2023-04-28T07:19:36;10.65;;;5.30;;
49834;SDS011;35729;52.090;13.162;2023-04-28T07:22:04;11.45;;;5.90;;
49834;SDS011;35729;52.090;13.162;2023-04-28T07:24:36;6.53;;;5.28;;
49834;SDS011;35729;52.090;13.162;2023-04-28T07:27:04;9.10;;;5.63;;
49834;SDS011;35729;52.090;13.162;2023-04-28T07:29:33;22.17;;;15.45;;
49834;SDS011;35729;52.090;13.162;2023-04-28T07:32:01;11.00;;;5.90;;
49834;SDS011;35729;52.090;13.162;2023-04-28T07:34:32;8.15;;;6.07;;
49834;SDS011;35729;52.090;13.162;2023-04-28T07:37:01;7.43;;;5.40;;
49834;SDS011;35729;52.090;13.162;2023-04-28T07:39:30;8.30;;;5.05;;
49834;SDS011;35729;52.090;13.162;2023-04-28T07:42:02;8.75;;;5.18;;
49834;SDS011;35729;52.090;13.162;2023-04-28T07:44:31;8.75;;;4.85;;
49834;SDS011;35729;52.090;13.162;2023-04-28T07:46:59;10.48;;;6.00;;
49834;SDS011;35729;52.090;13.162;2023-04-28T07:49:35;7.68;;;5.32;;
49834;SDS011;35729;52.090;13.162;2023-04-28T07:52:04;10.13;;;6.00;;
49834;SDS011;35729;52.090;13.162;2023-04-28T07:54:32;10.40;;;5.30;;
49834;SDS011;35729;52.090;13.162;2023-04-28T07:57:03;8.23;;;5.95;;
49834;SDS011;35729;52.090;13.162;2023-04-28T07:59:32;8.85;;;5.28;;
49834;SDS011;35729;52.090;13.162;2023-04-28T08:02:01;10.85;;;5.53;;
49834;SDS011;35729;52.090;13.162;2023-04-28T08:04:30;7.90;;;5.28;;
49834;SDS011;35729;52.090;13.162;2023-04-28T08:06:59;11.65;;;6.78;;
49834;SDS011;35729;52.090;13.162;2023-04-28T08:09:27;11.90;;;6.68;;
49834;SDS011;35729;52.090;13.162;2023-04-28T08:11:56;11.55;;;7.32;;
49834;SDS011;35729;52.090;13.162;2023-04-28T08:14:28;9.20;;;5.97;;
49834;SDS011;35729;52.090;13.162;2023-04-28T08:16:56;9.60;;;6.20;;
49834;SDS011;35729;52.090;13.162;2023-04-28T08:19:25;11.93;;;6.07;;
49834;SDS011;35729;52.090;13.162;2023-04-28T08:21:53;13.93;;;6.05;;
49834;SDS011;35729;52.090;13.162;2023-04-28T08:24:24;12.23;;;6.03;;
49834;SDS011;35729;52.090;13.162;2023-04-28T08:26:54;9.57;;;6.28;;
49834;SDS011;35729;52.090;13.162;2023-04-28T08:29:22;10.95;;;6.35;;
49834;SDS011;35729;52.090;13.162;2023-04-28T08:31:53;10.18;;;5.93;;
49834;SDS011;35729;52.090;13.162;2023-04-28T08:34:22;10.73;;;6.50;;
49834;SDS011;35729;52.090;13.162;2023-04-28T08:36:51;10.45;;;6.70;;
49834;SDS011;35729;52.090;13.162;2023-04-28T08:39:19;12.15;;;5.97;;
49834;SDS011;35729;52.090;13.162;2023-04-28T08:41:50;12.02;;;6.47;;
49834;SDS011;35729;52.090;13.162;2023-04-28T08:44:19;10.88;;;5.75;;
49834;SDS011;35729;52.090;13.162;2023-04-28T08:46:48;7.72;;;5.50;;
49834;SDS011;35729;52.090;13.162;2023-04-28T08:49:22;9.25;;;5.75;;
49834;SDS011;35729;52.090;13.162;2023-04-28T08:52:01;10.25;;;5.75;;
49834;SDS011;35729;52.090;13.162;2023-04-28T08:54:37;9.30;;;5.75;;
49834;SDS011;35729;52.090;13.162;2023-04-28T08:57:07;14.02;;;5.63;;
49834;SDS011;35729;52.090;13.162;2023-04-28T08:59:39;10.52;;;6.10;;
49834;SDS011;35729;52.090;13.162;2023-04-28T09:02:08;12.27;;;5.80;;
49834;SDS011;35729;52.090;13.162;2023-04-28T09:04:39;8.23;;;5.53;;
49834;SDS011;35729;52.090;13.162;2023-04-28T09:07:09;11.57;;;6.07;;
49834;SDS011;35729;52.090;13.162;2023-04-28T09:09:38;8.25;;;5.45;;
49834;SDS011;35729;52.090;13.162;2023-04-28T09:12:09;8.20;;;5.53;;
49834;SDS011;35729;52.090;13.162;2023-04-28T09:14:38;9.75;;;5.00;;
49834;SDS011;35729;52.090;13.162;2023-04-28T09:17:09;10.73;;;6.15;;
49834;SDS011;35729;52.090;13.162;2023-04-28T09:19:43;11.73;;;5.75;;
49834;SDS011;35729;52.090;13.162;2023-04-28T09:22:11;10.18;;;5.60;;
49834;SDS011;35729;52.090;13.162;2023-04-28T09:24:40;10.95;;;6.13;;
49834;SDS011;35729;52.090;13.162;2023-04-28T09:27:09;13.02;;;5.72;;
49834;SDS011;35729;52.090;13.162;2023-04-28T09:29:50;8.02;;;5.95;;
49834;SDS011;35729;52.090;13.162;2023-04-28T09:32:20;8.00;;;5.47;;
49834;SDS011;35729;52.090;13.162;2023-04-28T09:34:54;10.25;;;7.30;;
49834;SDS011;35729;52.090;13.162;2023-04-28T09:37:24;10.20;;;6.60;;
49834;SDS011;35729;52.090;13.162;2023-04-28T09:39:55;12.27;;;5.72;;
49834;SDS011;35729;52.090;13.162;2023-04-28T09:42:31;9.95;;;6.45;;
49834;SDS011;35729;52.090;13.162;2023-04-28T09:45:00;15.25;;;6.28;;
49834;SDS011;35729;52.090;13.162;2023-04-28T09:47:30;9.10;;;6.00;;
49834;SDS011;35729;52.090;13.162;2023-04-28T09:50:02;12.02;;;6.35;;
49834;SDS011;35729;52.090;13.162;2023-04-28T09:55:02;10.77;;;5.95;;
49834;SDS011;35729;52.090;13.162;2023-04-28T09:57:33;12.20;;;6.65;;
49834;SDS011;35729;52.090;13.162;2023-04-28T10:00:03;11.30;;;6.00;;
49834;SDS011;35729;52.090;13.162;2023-04-28T10:02:33;9.38;;;5.57;;
49834;SDS011;35729;52.090;13.162;2023-04-28T10:05:06;10.60;;;6.40;;
49834;SDS011;35729;52.090;13.162;2023-04-28T10:07:36;10.52;;;5.53;;
49834;SDS011;35729;52.090;13.162;2023-04-28T10:10:06;8.18;;;5.50;;
49834;SDS011;35729;52.090;13.162;2023-04-28T10:12:35;9.88;;;5.85;;
49834;SDS011;35729;52.090;13.162;2023-04-28T10:15:05;8.80;;;5.30;;
49834;SDS011;35729;52.090;13.162;2023-04-28T10:17:36;10.70;;;6.00;;
49834;SDS011;35729;52.090;13.162;2023-04-28T10:20:09;7.97;;;5.45;;
49834;SDS011;35729;52.090;13.162;2023-04-28T10:22:43;8.02;;;6.20;;
49834;SDS011;35729;52.090;13.162;2023-04-28T10:25:32;9.85;;;5.90;;
49834;SDS011;35729;52.090;13.162;2023-04-28T10:28:03;9.48;;;5.20;;
49834;SDS011;35729;52.090;13.162;2023-04-28T10:30:33;9.43;;;5.68;;
49834;SDS011;35729;52.090;13.162;2023-04-28T10:35:55;11.27;;;5.88;;
49834;SDS011;35729;52.090;13.162;2023-04-28T10:38:23;11.82;;;5.55;;
49834;SDS011;35729;52.090;13.162;2023-04-28T10:40:52;12.00;;;5.95;;
49834;SDS011;35729;52.090;13.162;2023-04-28T10:43:32;11.90;;;6.50;;
49834;SDS011;35729;52.090;13.162;2023-04-28T10:46:05;9.77;;;6.28;;
49834;SDS011;35729;52.090;13.162;2023-04-28T10:51:33;8.90;;;5.20;;
49834;SDS011;35729;52.090;13.162;2023-04-28T10:54:14;9.13;;;5.40;;
49834;SDS011;35729;52.090;13.162;2023-04-28T10:59:45;8.75;;;5.90;;
49834;SDS011;35729;52.090;13.162;2023-04-28T11:05:15;10.32;;;5.75;;
49834;SDS011;35729;52.090;13.162;2023-04-28T11:13:44;8.90;;;5.43;;
49834;SDS011;35729;52.090;13.162;2023-04-28T11:16:14;13.57;;;6.47;;
49834;SDS011;35729;52.090;13.162;2023-04-28T11:18:47;11.25;;;5.22;;
49834;SDS011;35729;52.090;13.162;2023-04-28T11:21:18;10.48;;;5.13;;
49834;SDS011;35729;52.090;13.162;2023-04-28T11:23:47;8.68;;;4.95;;
49834;SDS011;35729;52.090;13.162;2023-04-28T11:26:18;8.10;;;5.32;;
49834;SDS011;35729;52.090;13.162;2023-04-28T11:28:51;10.75;;;7.82;;
49834;SDS011;35729;52.090;13.162;2023-04-28T11:31:21;9.40;;;5.20;;
49834;SDS011;35729;52.090;13.162;2023-04-28T11:33:50;10.27;;;6.20;;
49834;SDS011;35729;52.090;13.162;2023-04-28T11:36:22;10.73;;;5.32;;
49834;SDS011;35729;52.090;13.162;2023-04-28T11:38:56;9.10;;;5.30;;
49834;SDS011;35729;52.090;13.162;2023-04-28T11:41:27;8.00;;;5.03;;
49834;SDS011;35729;52.090;13.162;2023-04-28T11:43:56;7.82;;;5.10;;
49834;SDS011;35729;52.090;13.162;2023-04-28T11:46:24;7.90;;;5.25;;
49834;SDS011;35729;52.090;13.162;2023-04-28T11:49:00;9.10;;;4.95;;
49834;SDS011;35729;52.090;13.162;2023-04-28T11:51:34;8.20;;;5.35;;
49834;SDS011;35729;52.090;13.162;2023-04-28T11:54:04;9.05;;;4.65;;
49834;SDS011;35729;52.090;13.162;2023-04-28T11:56:39;9.63;;;5.35;;
49834;SDS011;35729;52.090;13.162;2023-04-28T11:59:09;8.68;;;5.60;;
49834;SDS011;35729;52.090;13.162;2023-04-28T12:01:45;9.27;;;5.30;;
49834;SDS011;35729;52.090;13.162;2023-04-28T12:04:25;7.82;;;4.93;;
49834;SDS011;35729;52.090;13.162;2023-04-28T12:07:03;9.15;;;5.45;;
49834;SDS011;35729;52.090;13.162;2023-04-28T12:09:34;9.15;;;6.25;;
49834;SDS011;35729;52.090;13.162;2023-04-28T12:12:07;8.75;;;5.40;;
49834;SDS011;35729;52.090;13.162;2023-04-28T12:17:24;11.15;;;5.85;;
49834;SDS011;35729;52.090;13.162;2023-04-28T12:19:53;8.55;;;5.93;;
49834;SDS011;35729;52.090;13.162;2023-04-28T12:22:23;10.35;;;5.93;;
49834;SDS011;35729;52.090;13.162;2023-04-28T12:25:02;7.82;;;5.75;;
49834;SDS011;35729;52.090;13.162;2023-04-28T12:27:34;9.68;;;5.78;;
49834;SDS011;35729;52.090;13.162;2023-04-28T12:32:51;10.52;;;5.82;;
49834;SDS011;35729;52.090;13.162;2023-04-28T12:35:22;10.63;;;6.60;;
49834;SDS011;35729;52.090;13.162;2023-04-28T12:37:51;10.25;;;6.85;;
49834;SDS011;35729;52.090;13.162;2023-04-28T12:40:20;9.80;;;6.85;;
49834;SDS011;35729;52.090;13.162;2023-04-28T12:42:51;12.88;;;6.93;;
49834;SDS011;35729;52.090;13.162;2023-04-28T12:45:20;13.85;;;8.05;;
49834;SDS011;35729;52.090;13.162;2023-04-28T12:47:49;14.48;;;10.65;;
49834;SDS011;35729;52.090;13.162;2023-04-28T12:50:17;14.15;;;9.90;;
49834;SDS011;35729;52.090;13.162;2023-04-28T12:52:46;9.50;;;7.90;;
49834;SDS011;35729;52.090;13.162;2023-04-28T12:55:15;12.27;;;7.90;;
49834;SDS011;35729;52.090;13.162;2023-04-28T12:57:43;11.68;;;6.90;;
49834;SDS011;35729;52.090;13.162;2023-04-28T13:00:15;8.70;;;5.63;;
49834;SDS011;35729;52.090;13.162;2023-04-28T13:02:47;8.00;;;6.10;;
49834;SDS011;35729;52.090;13.162;2023-04-28T13:05:15;8.38;;;6.00;;
49834;SDS011;35729;52.090;13.162;2023-04-28T13:07:44;10.95;;;6.07;;
49834;SDS011;35729;52.090;13.162;2023-04-28T13:10:13;10.15;;;5.80;;
49834;SDS011;35729;52.090;13.162;2023-04-28T13:12:42;7.50;;;5.93;;
49834;SDS011;35729;52.090;13.162;2023-04-28T13:15:10;9.93;;;5.70;;
49834;SDS011;35729;52.090;13.162;2023-04-28T13:17:42;9.50;;;6.40;;
49834;SDS011;35729;52.090;13.162;2023-04-28T13:20:11;15.35;;;9.00;;
49834;SDS011;35729;52.090;13.162;2023-04-28T13:22:39;10.98;;;7.40;;
49834;SDS011;35729;52.090;13.162;2023-04-28T13:25:08;11.00;;;7.13;;
49834;SDS011;35729;52.090;13.162;2023-04-28T13:27:37;11.65;;;7.47;;
49834;SDS011;35729;52.090;13.162;2023-04-28T13:30:06;10.63;;;6.53;;
49834;SDS011;35729;52.090;13.162;2023-04-28T13:32:35;13.07;;;6.70;;
49834;SDS011;35729;52.090;13.162;2023-04-28T13:35:07;10.60;;;6.47;;
49834;SDS011;35729;52.090;13.162;2023-04-28T13:37:36;10.48;;;6.43;;
49834;SDS011;35729;52.090;13.162;2023-04-28T13:40:10;11.52;;;6.53;;
49834;SDS011;35729;52.090;13.162;2023-04-28T13:42:39;10.10;;;6.70;;
49834;SDS011;35729;52.090;13.162;2023-04-28T13:45:08;9.18;;;5.82;;
49834;SDS011;35729;52.090;13.162;2023-04-28T13:47:37;10.73;;;7.47;;
49834;SDS011;35729;52.090;13.162;2023-04-28T13:50:36;10.50;;;7.68;;
49834;SDS011;35729;52.090;13.162;2023-04-28T13:53:05;12.18;;;7.38;;
49834;SDS011;35729;52.090;13.162;2023-04-28T13:55:33;8.85;;;6.90;;
49834;SDS011;35729;52.090;13.162;2023-04-28T13:58:02;10.48;;;6.43;;
49834;SDS011;35729;52.090;13.162;2023-04-28T14:00:31;10.70;;;7.07;;
49834;SDS011;35729;52.090;13.162;2023-04-28T14:03:01;11.93;;;6.90;;
49834;SDS011;35729;52.090;13.162;2023-04-28T14:05:30;11.27;;;7.07;;
49834;SDS011;35729;52.090;13.162;2023-04-28T14:08:08;9.55;;;6.70;;
49834;SDS011;35729;52.090;13.162;2023-04-28T14:10:43;10.02;;;6.95;;
49834;SDS011;35729;52.090;13.162;2023-04-28T14:13:12;9.15;;;8.25;;
49834;SDS011;35729;52.090;13.162;2023-04-28T14:15:40;11.43;;;8.52;;
49834;SDS011;35729;52.090;13.162;2023-04-28T14:18:09;10.25;;;7.25;;
49834;SDS011;35729;52.090;13.162;2023-04-28T14:20:38;18.48;;;15.70;;
49834;SDS011;35729;52.090;13.162;2023-04-28T14:23:09;12.45;;;9.88;;
49834;SDS011;35729;52.090;13.162;2023-04-28T14:25:39;12.95;;;8.95;;
49834;SDS011;35729;52.090;13.162;2023-04-28T14:28:08;9.98;;;7.32;;
49834;SDS011;35729;52.090;13.162;2023-04-28T14:30:36;10.90;;;7.30;;
49834;SDS011;35729;52.090;13.162;2023-04-28T14:33:05;13.43;;;8.95;;
49834;SDS011;35729;52.090;13.162;2023-04-28T14:35:33;11.63;;;7.57;;
49834;SDS011;35729;52.090;13.162;2023-04-28T14:38:02;8.85;;;7.45;;
49834;SDS011;35729;52.090;13.162;2023-04-28T14:40:33;9.60;;;7.35;;
49834;SDS011;35729;52.090;13.162;2023-04-28T14:43:02;6.97;;;6.20;;
49834;SDS011;35729;52.090;13.162;2023-04-28T14:45:30;8.88;;;7.22;;
49834;SDS011;35729;52.090;13.162;2023-04-28T14:47:59;8.68;;;6.13;;
49834;SDS011;35729;52.090;13.162;2023-04-28T14:50:28;10.50;;;6.20;;
49834;SDS011;35729;52.090;13.162;2023-04-28T14:52:57;8.20;;;6.40;;
49834;SDS011;35729;52.090;13.162;2023-04-28T14:55:29;12.73;;;7.57;;
49834;SDS011;35729;52.090;13.162;2023-04-28T14:58:00;10.98;;;6.88;;
49834;SDS011;35729;52.090;13.162;2023-04-28T15:00:29;9.23;;;6.53;;
49834;SDS011;35729;52.090;13.162;2023-04-28T15:02:57;14.57;;;6.95;;
49834;SDS011;35729;52.090;13.162;2023-04-28T15:05:26;9.55;;;6.93;;
49834;SDS011;35729;52.090;13.162;2023-04-28T15:07:54;12.13;;;7.10;;
49834;SDS011;35729;52.090;13.162;2023-04-28T15:10:23;6.88;;;6.05;;